Pittsfield, New York
Current Conditions -  °F | °C
As of 4:10 PM on Thursday 27 Nov 2014 (Local Time) from KRME Reporting Station
Light Snow Light Snow  
Wind Chill: 23°   Ceiling: 800
Heat Index: 29°   Visibility: 2.5mi
Dew Point: 27°   Wind: 6mph
Humidity: 92%   Direction: 270°W
Pressure: 30.04"   Gusts: NA
Location:  42.6523°N, 75.3232°W
Report Text: KRME 272110Z 27005KT 2 1/2SM -SN BR BKN008 OVC013 M02/M03 A3004 RMK AO2 P0000 T10171028
Loading
Personal Weather Stations






























Interactive Weather Map New forecast layout! Learn more

10-Day Weather Forecast

Advertisements
Track Severe Weather on mobile